This is the latest recevied weather packets stored in our database for station/object I2HLY-4. If no packets are shown the sender has not sent any weather packets the latest 1 day(s).
| Time | Temp. | Humidity | Pressure | Rain* | Wind** | Luminosity | Snow |
|---|---|---|---|---|---|---|---|
| 1778096844 | 6.67° C | 95% | 1012.5 hPa | 0 mm | - | - | - |
| 1778094131 | 7.22° C | 94% | 1011.7 hPa | 1.02 mm | - | - | - |
| 1778093234 | 6.67° C | 94% | 1011.1 hPa | 1.02 mm | - | - | - |
| 1778089637 | 6.67° C | 95% | 1010.6 hPa | 12.95 mm | - | - | - |
| 1778083334 | 10° C | 91% | 1008.8 hPa | 3.05 mm | - | - | - |
| 1778080637 | 11.11° C | 82% | 1009 hPa | 2.03 mm | - | - | - |
| 1778079742 | 12.22° C | 83% | 1008.9 hPa | 0 mm | - | - | - |
| 1778077042 | 12.22° C | 82% | 1009.4 hPa | 0 mm | - | - | - |
| 1778074349 | 12.22° C | 82% | 1010.3 hPa | 0 mm | - | - | - |
| 1778072553 | 11.67° C | 88% | 1010.3 hPa | 1.02 mm | - | - | - |
| 1778071633 | 11.11° C | 88% | 1010.2 hPa | 1.02 mm | - | - | - |
| 1778069838 | 11.11° C | 86% | 1010.1 hPa | 1.02 mm | - | - | - |
| 1778068945 | 11.67° C | 88% | 1010 hPa | 0 mm | - | - | - |
| 1778067149 | 10.56° C | 89% | 1010.1 hPa | 0 mm | - | - | - |
| 1778066230 | 10.56° C | 88% | 1010.3 hPa | 0 mm | - | - | - |
| 1778064432 | 9.44° C | 92% | 1010.8 hPa | 0 mm | - | - | - |
| 1778063531 | 8.89° C | 93% | 1010.6 hPa | 1.02 mm | - | - | - |
| 1778062635 | 8.89° C | 91% | 1010.9 hPa | 3.05 mm | - | - | - |
| 1778060840 | 8.33° C | 93% | 1010.7 hPa | 7.87 mm | - | - | - |
| 1778059043 | 8.33° C | 92% | 1010.7 hPa | 5.08 mm | - | - | - |
| 1778056331 | 9.44° C | 86% | 1010 hPa | 0 mm | - | - | - |
| 1778055432 | 9.44° C | 85% | 1010 hPa | 0 mm | - | - | - |
| 1778051834 | 8.89° C | 88% | 1010.2 hPa | 0 mm | - | - | - |
| 1778049141 | 7.78° C | 94% | 1010.7 hPa | 4.06 mm | - | - | - |
| 1778048238 | 7.78° C | 95% | 1010.7 hPa | 6.1 mm | - | - | - |
* Rain latest hour (hover to see other rain measurements)
** Current wind speed in m/s (hover to see current wind gust speed)